Terminal Aerodrome Forecast
Issued by NWS Buffalo, NY

Home | Current Version | Previous Version | Text Only | Print | Product List | Glossary On
Versions: 1 2 3 4 5 6 7 8 9 10 11 12 13 14 15 16 17 18 19 20 21 22 23 24 25 26 27 28 29 30
233
FTUS41 KBUF 232333
TAFROC
TAF
KROC 232333Z 2400/2424 09009G21KT P6SM SCT010 BKN060
     FM240200 07011G21KT 6SM -SN OVC040
     FM240700 05012G19KT 1SM -SN OVC012
     FM241200 03011KT 1SM -SN OVC007
     FM241600 36008KT 2SM -SN OVC012
     FM242100 35008KT 5SM -SN OVC020=

USA.gov is the U.S. government's official web portal to all federal, state and local government web resources and services.